This is the latest recevied weather packets stored in our database for station/object KD7KCN-5. If no packets are shown the sender has not sent any weather packets the latest 1 day(s).
| Time | Temp. | Humidity | Pressure | Rain* | Wind** | Luminosity | Snow |
|---|---|---|---|---|---|---|---|
| 1778007107 | 12.22° C | 44% | 1010.2 hPa | 0 mm | 4.02 m/s, 141° | 1107 W/m² | - |
| 1778006507 | 12.22° C | 43% | 1010.1 hPa | 0 mm | 2.68 m/s, 191° | 230 W/m² | - |
| 1778005907 | 12.22° C | 45% | 1010.1 hPa | 0 mm | 2.68 m/s, 170° | 304 W/m² | - |
| 1778005308 | 12.22° C | 46% | 1010.1 hPa | 0 mm | 2.24 m/s, 201° | 260 W/m² | - |
| 1778004708 | 12.78° C | 45% | 1010 hPa | 0 mm | 2.68 m/s, 195° | 766 W/m² | - |
| 1778002910 | 13.33° C | 44% | 1010 hPa | 0 mm | 4.92 m/s, 144° | 942 W/m² | - |
| 1778002308 | 13.33° C | 43% | 1010 hPa | 0 mm | 3.58 m/s, 139° | 904 W/m² | - |
| 1778001708 | 12.78° C | 47% | 1010.1 hPa | 0 mm | 2.68 m/s, 167° | 881 W/m² | - |
| 1778001108 | 12.78° C | 46% | 1010 hPa | 0 mm | 5.36 m/s, 194° | 881 W/m² | - |
| 1778000508 | 12.78° C | 47% | 1010.2 hPa | 0 mm | 1.34 m/s, 210° | 933 W/m² | - |
| 1777999908 | 11.67° C | 50% | 1009.9 hPa | 0 mm | 3.13 m/s, 151° | 846 W/m² | - |
| 1777999308 | 11.11° C | 49% | 1009.8 hPa | 0 mm | 7.15 m/s, 143° | 796 W/m² | - |
| 1777998708 | 10.56° C | 51% | 1009.8 hPa | 0 mm | 4.02 m/s, 136° | 105 W/m² | - |
| 1777998108 | 11.11° C | 49% | 1009.7 hPa | 0 mm | 8.94 m/s, 142° | 213 W/m² | - |
| 1777997508 | 10.56° C | 52% | 1009.7 hPa | 0 mm | 2.68 m/s, 155° | 715 W/m² | - |
| 1777996908 | 10° C | 51% | 1009.7 hPa | 0 mm | 6.26 m/s, 185° | 93 W/m² | - |
| 1777996308 | 10.56° C | 50% | 1009.6 hPa | 0 mm | 7.15 m/s, 156° | 666 W/m² | - |
| 1777995708 | 10° C | 53% | 1010.5 hPa | 0 mm | 6.71 m/s, 149° | 113 W/m² | - |
| 1777995108 | 10.56° C | 51% | 1010.3 hPa | 0 mm | 7.6 m/s, 168° | 469 W/m² | - |
| 1777994508 | 10.56° C | 53% | 1010.3 hPa | 0 mm | 6.71 m/s, 157° | 533 W/m² | - |
| 1777993308 | 10° C | 54% | 1010.2 hPa | 0 mm | 2.68 m/s, 207° | 464 W/m² | - |
| 1777992708 | 10° C | 55% | 1010.2 hPa | 0 mm | 5.81 m/s, 201° | 434 W/m² | - |
| 1777992108 | 9.44° C | 55% | 1010.2 hPa | 0 mm | 6.71 m/s, 206° | 401 W/m² | - |
| 1777991508 | 9.44° C | 55% | 1010.1 hPa | 0 mm | 5.36 m/s, 181° | 366 W/m² | - |
| 1777990908 | 9.44° C | 54% | 1010.2 hPa | 0 mm | 3.13 m/s, 188° | 334 W/m² | - |
* Rain latest hour (hover to see other rain measurements)
** Current wind speed in m/s (hover to see current wind gust speed)